Time;durP1;ratioP1;P1;durP2;ratioP2;P2;SDS_P1;SDS_P2;PMS_P1;PMS_P2;Temp;Humidity;BMP_temperature;BMP_pressure;BME280_temperature;BME280_humidity;BME280_pressure;Samples;Min_cycle;Max_cycle;Signal;HPM_P1;HPM_P2
2022/08/01 00:00:34;;;;;;;10.38;6.15;;;18.00;99.90;;;;;;4896575;29;20096;-83
2022/08/01 00:02:59;;;;;;;10.93;5.53;;;18.00;99.90;;;;;;4901499;29;20047;-82
2022/08/01 00:05:25;;;;;;;9.80;5.60;;;18.00;99.90;;;;;;4894831;29;20044;-83
2022/08/01 00:07:51;;;;;;;12.02;5.03;;;18.00;99.90;;;;;;4914902;29;20039;-84
2022/08/01 00:10:17;;;;;;;8.57;4.95;;;18.00;99.90;;;;;;4900263;29;20040;-82
2022/08/01 00:12:44;;;;;;;8.23;4.00;;;17.90;99.90;;;;;;4909234;29;20084;-83
2022/08/01 00:15:12;;;;;;;9.40;3.92;;;17.90;99.90;;;;;;4893209;29;20118;-83
2022/08/01 00:17:38;;;;;;;8.43;5.30;;;17.90;99.90;;;;;;4876177;29;20144;-83
2022/08/01 00:20:05;;;;;;;6.53;4.25;;;17.90;99.90;;;;;;4895747;29;20064;-83
2022/08/01 00:22:32;;;;;;;7.20;4.30;;;17.90;99.90;;;;;;4880192;29;20044;-83
2022/08/01 00:24:58;;;;;;;7.95;4.50;;;17.90;99.90;;;;;;4901945;29;20103;-83
2022/08/01 00:27:23;;;;;;;8.60;4.47;;;17.90;99.90;;;;;;4900324;29;20044;-83
2022/08/01 00:29:49;;;;;;;10.95;4.57;;;17.90;99.90;;;;;;4903629;29;20439;-83
2022/08/01 00:32:14;;;;;;;9.02;4.50;;;17.90;99.90;;;;;;4902783;29;20059;-82
2022/08/01 00:34:40;;;;;;;9.55;4.28;;;17.90;99.90;;;;;;4892750;29;20087;-83
2022/08/01 00:37:05;;;;;;;8.23;3.60;;;17.90;99.90;;;;;;4893201;29;20044;-83
2022/08/01 00:39:32;;;;;;;8.07;4.30;;;17.80;99.90;;;;;;4881927;29;20076;-83
2022/08/01 00:41:58;;;;;;;8.43;4.97;;;17.80;99.90;;;;;;4893883;29;20051;-83
2022/08/01 00:44:24;;;;;;;14.25;7.32;;;17.80;99.90;;;;;;4881551;29;20501;-84
2022/08/01 00:46:50;;;;;;;7.28;5.78;;;17.80;99.90;;;;;;4913588;29;20067;-84
2022/08/01 00:49:15;;;;;;;10.63;7.20;;;17.80;99.90;;;;;;4894620;29;20123;-83
2022/08/01 00:51:41;;;;;;;15.20;6.90;;;17.80;99.90;;;;;;4884513;29;20044;-84
2022/08/01 00:54:07;;;;;;;10.85;5.78;;;17.70;99.90;;;;;;4894702;29;20043;-83
2022/08/01 00:56:32;;;;;;;14.20;6.72;;;17.70;99.90;;;;;;4916810;29;20455;-83
2022/08/01 00:58:58;;;;;;;9.45;6.20;;;17.70;99.90;;;;;;4885074;29;20061;-83
2022/08/01 01:01:24;;;;;;;11.23;6.70;;;17.80;99.90;;;;;;4883809;29;20096;-83
2022/08/01 01:03:52;;;;;;;11.85;6.32;;;17.70;99.90;;;;;;4890935;29;20129;-83
2022/08/01 01:06:35;;;;;;;10.48;6.97;;;17.70;99.90;;;;;;4924040;29;20345;-83
2022/08/01 01:09:25;;;;;;;11.15;6.80;;;17.80;99.90;;;;;;4894225;29;20068;-83
2022/08/01 01:12:02;;;;;;;12.27;6.30;;;17.80;99.90;;;;;;4908157;29;20055;-84
2022/08/01 01:14:49;;;;;;;13.27;7.32;;;17.80;99.90;;;;;;4898341;29;20044;-83
2022/08/01 01:17:23;;;;;;;11.02;6.90;;;17.80;99.90;;;;;;4895827;29;20055;-84
2022/08/01 01:19:53;;;;;;;13.98;7.13;;;17.80;99.90;;;;;;4879239;29;20095;-86
2022/08/01 01:22:44;;;;;;;10.95;6.95;;;17.80;99.90;;;;;;4895879;29;20056;-84
2022/08/01 01:25:32;;;;;;;13.13;7.28;;;17.80;99.90;;;;;;4895361;29;20092;-85
2022/08/01 01:28:21;;;;;;;12.07;7.70;;;17.80;99.90;;;;;;4880613;29;20039;-86
2022/08/01 01:30:53;;;;;;;10.98;6.53;;;17.80;99.90;;;;;;4899005;29;20051;-86
2022/08/01 01:33:21;;;;;;;13.35;6.80;;;17.80;99.90;;;;;;4897085;29;20036;-86
2022/08/01 01:35:51;;;;;;;13.38;7.55;;;17.80;99.90;;;;;;4892150;29;20482;-85
2022/08/01 01:38:20;;;;;;;12.20;6.55;;;17.80;99.90;;;;;;4875854;29;20079;-86
2022/08/01 01:40:48;;;;;;;10.30;6.18;;;17.80;99.90;;;;;;4894961;29;20048;-85
2022/08/01 01:43:15;;;;;;;9.90;6.90;;;17.80;99.90;;;;;;4894800;29;20442;-86
2022/08/01 01:45:43;;;;;;;14.20;8.10;;;17.80;99.90;;;;;;4880628;29;20051;-87
2022/08/01 01:48:12;;;;;;;11.95;7.90;;;17.80;99.90;;;;;;4894497;29;20040;-87
2022/08/01 01:50:40;;;;;;;12.40;7.05;;;17.80;99.90;;;;;;4891594;29;20266;-87
2022/08/01 01:53:10;;;;;;;9.25;5.30;;;17.80;99.90;;;;;;4878431;29;20091;-87
2022/08/01 01:55:38;;;;;;;8.48;5.65;;;17.80;99.90;;;;;;4894111;29;20044;-86
2022/08/01 01:58:05;;;;;;;9.68;5.97;;;17.80;99.90;;;;;;4912947;29;20115;-85
2022/08/01 02:00:33;;;;;;;10.77;5.40;;;17.80;99.90;;;;;;4883989;29;20089;-86
2022/08/01 02:03:05;;;;;;;6.65;5.32;;;17.80;99.90;;;;;;4885071;29;20063;-85
2022/08/01 02:05:34;;;;;;;9.15;5.50;;;17.80;99.90;;;;;;4897763;29;20040;-86
2022/08/01 02:08:02;;;;;;;10.32;5.72;;;17.80;99.90;;;;;;4877744;29;20180;-85
2022/08/01 02:10:29;;;;;;;8.82;4.78;;;17.80;99.90;;;;;;4891291;29;20071;-84
2022/08/01 02:12:57;;;;;;;6.40;4.32;;;17.80;99.90;;;;;;4892581;29;20040;-84
2022/08/01 02:15:24;;;;;;;9.07;5.15;;;17.80;99.90;;;;;;4893089;29;20044;-85
2022/08/01 02:17:50;;;;;;;8.20;5.35;;;17.70;99.90;;;;;;4893799;29;20040;-85
2022/08/01 02:20:17;;;;;;;7.85;4.55;;;17.80;99.90;;;;;;4904629;29;20403;-85
2022/08/01 02:22:57;;;;;;;8.38;5.00;;;17.80;99.90;;;;;;4896538;29;20123;-84
2022/08/01 02:25:26;;;;;;;7.95;3.92;;;17.70;99.90;;;;;;4890646;29;20410;-85
2022/08/01 02:28:04;;;;;;;8.90;4.22;;;17.70;99.90;;;;;;4896112;29;20387;-84
2022/08/01 02:30:34;;;;;;;6.75;4.25;;;17.70;99.90;;;;;;4894382;29;20044;-83
2022/08/01 02:33:09;;;;;;;6.15;3.42;;;17.70;99.90;;;;;;4914805;29;20036;-84
2022/08/01 02:35:38;;;;;;;4.97;3.13;;;17.70;99.90;;;;;;4895374;29;20147;-84
2022/08/01 02:38:06;;;;;;;4.93;2.33;;;17.70;99.90;;;;;;4915235;29;20050;-85
2022/08/01 02:40:35;;;;;;;5.00;1.88;;;17.60;99.90;;;;;;4898039;29;20574;-84
2022/08/01 02:43:04;;;;;;;4.63;1.88;;;17.60;99.90;;;;;;4890680;29;20044;-83
2022/08/01 02:45:32;;;;;;;3.92;1.42;;;17.60;99.90;;;;;;4893974;29;20048;-85
2022/08/01 02:48:01;;;;;;;2.72;1.75;;;17.60;99.90;;;;;;4892359;29;20128;-84
2022/08/01 02:50:29;;;;;;;5.57;1.20;;;17.50;99.90;;;;;;4873716;29;20036;-83
2022/08/01 02:52:56;;;;;;;4.32;1.60;;;17.50;99.90;;;;;;4895567;29;20046;-85
2022/08/01 02:55:23;;;;;;;3.05;1.42;;;17.40;99.90;;;;;;4893874;29;20036;-84
2022/08/01 02:57:51;;;;;;;3.72;1.67;;;17.40;99.90;;;;;;4874769;29;20051;-83
2022/08/01 03:00:18;;;;;;;4.25;1.40;;;17.40;99.90;;;;;;4896372;29;20564;-84
2022/08/01 03:02:46;;;;;;;4.70;1.63;;;17.30;99.90;;;;;;4898539;29;20044;-83
2022/08/01 03:05:13;;;;;;;2.55;1.63;;;17.30;99.90;;;;;;4897866;29;20047;-83
2022/08/01 03:07:40;;;;;;;9.32;2.90;;;17.30;99.90;;;;;;4895508;29;20655;-83
2022/08/01 03:10:07;;;;;;;3.80;2.40;;;17.30;99.90;;;;;;4915027;29;20058;-83
2022/08/01 03:12:36;;;;;;;6.55;1.88;;;17.30;99.90;;;;;;4910284;29;20107;-83
2022/08/01 03:15:04;;;;;;;4.22;1.63;;;17.30;99.90;;;;;;4910686;29;20051;-83
2022/08/01 03:17:31;;;;;;;2.75;1.63;;;17.20;99.90;;;;;;4910230;29;20447;-83
2022/08/01 03:20:01;;;;;;;4.43;1.15;;;17.20;99.90;;;;;;4910341;29;20040;-83
2022/08/01 03:22:28;;;;;;;5.07;1.13;;;17.10;99.90;;;;;;4895617;29;20047;-84
2022/08/01 03:24:57;;;;;;;2.85;0.60;;;17.10;99.90;;;;;;4890947;29;20063;-83
2022/08/01 03:27:25;;;;;;;6.18;2.55;;;17.10;99.90;;;;;;4874480;29;20128;-83
2022/08/01 03:29:54;;;;;;;2.33;0.85;;;17.10;99.90;;;;;;4895746;29;20043;-84
2022/08/01 03:32:21;;;;;;;2.53;0.90;;;17.00;99.90;;;;;;4880190;29;20035;-83
2022/08/01 03:34:47;;;;;;;2.40;0.70;;;17.00;99.90;;;;;;4899370;29;20557;-83
2022/08/01 03:37:18;;;;;;;2.58;0.75;;;17.00;99.90;;;;;;4899053;29;20048;-83
2022/08/01 03:39:49;;;;;;;4.43;1.02;;;17.00;99.90;;;;;;4912861;29;20052;-83
2022/08/01 03:42:23;;;;;;;5.22;0.88;;;17.00;99.90;;;;;;4893165;29;20492;-83
2022/08/01 03:44:54;;;;;;;5.10;1.70;;;16.90;99.90;;;;;;4881861;29;20039;-82
2022/08/01 03:47:24;;;;;;;2.15;0.90;;;16.90;99.90;;;;;;4911788;29;20072;-83
2022/08/01 03:49:52;;;;;;;4.25;0.75;;;16.90;99.90;;;;;;4878111;29;20491;-84
2022/08/01 03:52:19;;;;;;;3.67;1.40;;;16.90;99.90;;;;;;4895542;29;20273;-84
2022/08/01 03:54:48;;;;;;;8.23;1.35;;;16.90;99.90;;;;;;4896000;29;20139;-82
2022/08/01 03:57:15;;;;;;;5.10;1.40;;;16.90;99.90;;;;;;4892556;29;20048;-84
2022/08/01 03:59:41;;;;;;;7.97;1.60;;;16.90;99.90;;;;;;4896643;29;20067;-82
2022/08/01 04:02:08;;;;;;;5.50;1.42;;;16.80;99.90;;;;;;4917864;29;20056;-82
2022/08/01 04:04:34;;;;;;;8.68;1.65;;;16.80;99.90;;;;;;4896595;29;20040;-83
2022/08/01 04:07:03;;;;;;;5.40;1.95;;;16.90;99.90;;;;;;4900811;29;20036;-82
2022/08/01 04:09:31;;;;;;;4.57;1.70;;;16.90;99.90;;;;;;4901252;29;20039;-82
2022/08/01 04:11:59;;;;;;;5.75;1.45;;;16.90;99.90;;;;;;4902595;29;20044;-82
2022/08/01 04:14:24;;;;;;;3.90;1.48;;;16.90;99.90;;;;;;4886654;29;20123;-83
2022/08/01 04:16:50;;;;;;;6.95;1.65;;;16.80;99.90;;;;;;4905580;29;20039;-84
2022/08/01 04:19:15;;;;;;;5.85;1.75;;;16.80;99.90;;;;;;4900508;29;20040;-83
2022/08/01 04:21:41;;;;;;;5.90;1.98;;;16.90;99.90;;;;;;4905148;29;20046;-82
2022/08/01 04:24:12;;;;;;;4.30;1.67;;;16.80;99.90;;;;;;4897489;29;20070;-82
2022/08/01 04:26:39;;;;;;;4.93;1.85;;;16.80;99.90;;;;;;4898160;29;20083;-82
2022/08/01 04:29:07;;;;;;;8.40;2.70;;;16.80;99.90;;;;;;4899265;29;20032;-82
2022/08/01 04:31:34;;;;;;;5.63;2.42;;;16.90;99.90;;;;;;4898771;29;20040;-82
2022/08/01 04:34:03;;;;;;;5.03;2.00;;;16.90;99.90;;;;;;4913853;29;20047;-82
2022/08/01 04:36:32;;;;;;;8.20;2.35;;;16.90;99.90;;;;;;4915913;29;20048;-82
2022/08/01 04:39:00;;;;;;;7.70;2.95;;;16.90;99.90;;;;;;4902734;29;20056;-84
2022/08/01 04:41:26;;;;;;;5.97;2.97;;;16.90;99.90;;;;;;4909311;29;20052;-82
2022/08/01 04:43:53;;;;;;;6.50;2.90;;;16.90;99.90;;;;;;4914292;29;20035;-82
2022/08/01 04:46:19;;;;;;;6.85;2.75;;;16.90;99.90;;;;;;4900682;29;21397;-82
2022/08/01 04:48:45;;;;;;;9.88;2.95;;;16.90;99.90;;;;;;4905316;29;20032;-82
2022/08/01 04:51:15;;;;;;;8.95;2.40;;;16.90;99.90;;;;;;4900004;29;20122;-82
2022/08/01 04:53:41;;;;;;;9.55;2.50;;;16.90;99.90;;;;;;4921093;29;20040;-82
2022/08/01 04:56:06;;;;;;;6.40;2.10;;;17.00;99.90;;;;;;4917984;29;20602;-81
2022/08/01 04:58:32;;;;;;;5.90;3.10;;;16.90;99.90;;;;;;4898880;29;20095;-82
2022/08/01 05:00:57;;;;;;;10.65;2.05;;;16.90;99.90;;;;;;4900228;29;20072;-82
2022/08/01 05:03:23;;;;;;;12.35;3.13;;;16.90;99.90;;;;;;4901908;29;20043;-81
2022/08/01 05:05:48;;;;;;;7.07;2.00;;;16.80;99.90;;;;;;4900426;29;20051;-82
2022/08/01 05:08:16;;;;;;;8.95;1.95;;;16.80;99.90;;;;;;4896679;29;20032;-82
2022/08/01 05:10:41;;;;;;;5.38;2.05;;;16.80;99.90;;;;;;4902022;29;20057;-82
2022/08/01 05:13:07;;;;;;;8.18;3.42;;;16.80;99.90;;;;;;4897526;29;20047;-82
2022/08/01 05:15:36;;;;;;;10.88;2.58;;;16.70;99.90;;;;;;4898559;29;20083;-82
2022/08/01 05:18:02;;;;;;;5.68;2.50;;;16.80;99.90;;;;;;4897913;29;20168;-81
2022/08/01 05:20:27;;;;;;;12.38;3.10;;;16.80;99.90;;;;;;4887212;29;20104;-81
2022/08/01 05:22:53;;;;;;;8.98;2.25;;;16.70;99.90;;;;;;4901668;29;20115;-82
2022/08/01 05:25:19;;;;;;;10.25;2.08;;;16.70;99.90;;;;;;4898013;29;20054;-82
2022/08/01 05:27:44;;;;;;;6.97;1.90;;;16.70;99.90;;;;;;4902198;29;20546;-81
2022/08/01 05:30:10;;;;;;;7.50;2.15;;;16.60;99.90;;;;;;4901565;29;20044;-81
2022/08/01 05:32:36;;;;;;;9.13;2.13;;;16.60;99.90;;;;;;4898583;29;20060;-81
2022/08/01 05:35:02;;;;;;;10.90;3.42;;;16.60;99.90;;;;;;4900920;29;20127;-81
2022/08/01 05:37:28;;;;;;;7.70;2.72;;;16.60;99.90;;;;;;4881716;29;20491;-82
2022/08/01 05:39:53;;;;;;;11.07;2.63;;;16.60;99.90;;;;;;4899097;29;20047;-81
2022/08/01 05:42:19;;;;;;;9.48;2.72;;;16.60;99.90;;;;;;4897761;29;20042;-81
2022/08/01 05:44:44;;;;;;;9.25;2.00;;;16.60;99.90;;;;;;4901129;29;20108;-81
2022/08/01 05:47:10;;;;;;;12.32;2.50;;;16.60;99.90;;;;;;4898880;29;20114;-82
2022/08/01 05:49:36;;;;;;;9.85;2.35;;;16.60;99.90;;;;;;4878066;29;20045;-81
2022/08/01 05:52:01;;;;;;;8.10;2.00;;;16.60;99.90;;;;;;4897374;29;20103;-81
2022/08/01 05:54:27;;;;;;;8.70;2.83;;;16.60;99.90;;;;;;4897851;29;20074;-81
2022/08/01 05:56:54;;;;;;;12.15;1.58;;;16.60;99.90;;;;;;4897004;29;20569;-81
2022/08/01 05:59:20;;;;;;;8.32;2.33;;;16.60;99.90;;;;;;4898696;29;20035;-82
2022/08/01 06:01:45;;;;;;;14.38;2.40;;;16.70;99.90;;;;;;4899405;29;20091;-81
2022/08/01 06:04:11;;;;;;;12.85;3.08;;;16.60;99.90;;;;;;4899022;29;20149;-81
2022/08/01 06:06:37;;;;;;;11.07;2.53;;;16.70;99.90;;;;;;4898469;29;20531;-80
2022/08/01 06:09:02;;;;;;;11.93;2.67;;;16.60;99.90;;;;;;4895560;29;20573;-81
2022/08/01 06:11:28;;;;;;;9.95;2.00;;;16.70;99.90;;;;;;4898137;29;20048;-81
2022/08/01 06:13:53;;;;;;;13.73;2.63;;;16.80;99.90;;;;;;4896851;29;20191;-81
2022/08/01 06:16:19;;;;;;;8.05;2.08;;;16.80;99.90;;;;;;4892626;29;20275;-80
2022/08/01 06:18:44;;;;;;;8.70;2.28;;;16.90;99.90;;;;;;4899781;29;20043;-81
2022/08/01 06:21:10;;;;;;;10.80;2.00;;;16.80;99.90;;;;;;4898165;29;20122;-81
2022/08/01 06:23:36;;;;;;;12.85;3.08;;;16.90;99.90;;;;;;4896927;29;20051;-80
2022/08/01 06:26:01;;;;;;;7.50;2.53;;;16.90;99.90;;;;;;4915078;29;20044;-80
2022/08/01 06:28:28;;;;;;;10.18;2.50;;;16.90;99.90;;;;;;4894925;29;20072;-80
2022/08/01 06:30:53;;;;;;;8.82;2.15;;;16.90;99.90;;;;;;4919195;29;20036;-80
2022/08/01 06:33:19;;;;;;;7.57;1.95;;;17.00;99.90;;;;;;4898322;29;20547;-80
2022/08/01 06:35:44;;;;;;;11.13;2.17;;;17.00;99.90;;;;;;4918053;29;20037;-81
2022/08/01 06:38:10;;;;;;;9.80;3.67;;;17.10;99.90;;;;;;4923140;29;20043;-80
2022/08/01 06:40:35;;;;;;;13.90;3.05;;;17.10;99.90;;;;;;4897825;29;20123;-81
2022/08/01 06:43:01;;;;;;;17.70;3.53;;;17.10;99.90;;;;;;4894968;29;20058;-81
2022/08/01 06:45:27;;;;;;;11.30;3.03;;;17.20;99.90;;;;;;4914255;29;20040;-82
2022/08/01 06:47:52;;;;;;;9.75;2.17;;;17.20;99.90;;;;;;4896939;29;20431;-81
2022/08/01 06:50:18;;;;;;;9.40;2.67;;;17.30;99.90;;;;;;4898624;29;20383;-81
2022/08/01 06:52:44;;;;;;;15.50;3.45;;;17.30;99.90;;;;;;4896899;29;20036;-81
2022/08/01 06:55:10;;;;;;;11.60;2.75;;;17.40;99.90;;;;;;4895034;29;20136;-81
2022/08/01 06:57:36;;;;;;;14.10;3.03;;;17.50;99.90;;;;;;4911658;29;20550;-82
2022/08/01 07:00:11;;;;;;;10.73;2.17;;;17.50;99.90;;;;;;4888618;29;20061;-81
2022/08/01 07:02:37;;;;;;;10.32;2.92;;;17.60;99.90;;;;;;4898291;29;20106;-81
2022/08/01 07:05:03;;;;;;;10.38;2.33;;;17.60;99.90;;;;;;4898971;29;20040;-81
2022/08/01 07:07:30;;;;;;;8.25;2.05;;;17.60;99.90;;;;;;4907312;29;20036;-81
2022/08/01 07:09:56;;;;;;;7.88;2.40;;;17.60;99.90;;;;;;4911673;29;20036;-81
2022/08/01 07:12:21;;;;;;;12.23;2.47;;;17.70;99.90;;;;;;4922147;29;20542;-81
2022/08/01 07:14:47;;;;;;;10.98;2.80;;;17.70;99.90;;;;;;4901641;29;20060;-81
2022/08/01 07:17:13;;;;;;;11.80;2.22;;;17.70;99.90;;;;;;4907455;29;20042;-81
2022/08/01 07:19:38;;;;;;;8.48;2.35;;;17.80;99.90;;;;;;4917942;29;20119;-81
2022/08/01 07:22:04;;;;;;;8.07;2.20;;;17.90;99.90;;;;;;4933485;29;20063;-81
2022/08/01 07:24:29;;;;;;;9.05;1.55;;;17.90;99.90;;;;;;4933493;29;20036;-80
2022/08/01 07:26:57;;;;;;;8.23;2.88;;;18.00;99.90;;;;;;4907606;29;20036;-81
2022/08/01 07:29:24;;;;;;;10.20;1.90;;;18.00;99.90;;;;;;4908029;29;20040;-81
2022/08/01 07:31:52;;;;;;;10.48;2.80;;;17.90;99.90;;;;;;4933342;29;20043;-81
2022/08/01 07:34:18;;;;;;;9.00;2.60;;;17.90;99.90;;;;;;4921467;29;20415;-81
2022/08/01 07:36:43;;;;;;;6.82;1.55;;;17.80;99.90;;;;;;4882169;23;20120;-83
2022/08/01 07:39:09;;;;;;;10.90;1.95;;;17.80;99.90;;;;;;4863383;29;20133;-83
2022/08/01 07:41:35;;;;;;;9.95;1.70;;;17.80;99.90;;;;;;4862657;29;20057;-82
2022/08/01 07:44:00;;;;;;;6.88;2.33;;;17.80;99.90;;;;;;4881926;29;20511;-83
2022/08/01 07:46:26;;;;;;;11.50;1.63;;;17.80;99.90;;;;;;4876822;29;20471;-81
2022/08/01 07:48:52;;;;;;;10.25;2.47;;;17.80;99.90;;;;;;4875316;29;20036;-81
2022/08/01 07:51:17;;;;;;;31.42;16.77;;;17.90;99.90;;;;;;4882339;29;20227;-80
2022/08/01 07:53:43;;;;;;;57.00;25.75;;;18.00;99.90;;;;;;4873488;29;20048;-78
2022/08/01 07:56:09;;;;;;;39.88;19.02;;;18.10;99.90;;;;;;4876652;29;20347;-78
2022/08/01 07:58:35;;;;;;;53.85;33.28;;;18.20;99.90;;;;;;4877693;29;20144;-78
2022/08/01 08:01:00;;;;;;;37.72;25.73;;;18.20;99.90;;;;;;4882065;29;20048;-79
2022/08/01 08:03:26;;;;;;;32.28;21.45;;;18.30;99.90;;;;;;4881959;29;20052;-80
2022/08/01 08:05:52;;;;;;;11.80;5.05;;;18.40;99.90;;;;;;4878642;29;20037;-80
2022/08/01 08:08:18;;;;;;;6.97;2.30;;;18.60;99.90;;;;;;4875722;29;20091;-78
2022/08/01 08:10:44;;;;;;;7.50;1.48;;;18.70;99.90;;;;;;4877516;29;20476;-79
2022/08/01 08:13:09;;;;;;;6.75;1.15;;;18.80;99.90;;;;;;4879322;29;20040;-79
2022/08/01 08:15:35;;;;;;;10.38;1.77;;;18.80;99.90;;;;;;4863023;29;20527;-78
2022/08/01 08:18:02;;;;;;;10.43;1.50;;;18.90;99.90;;;;;;4863134;29;20052;-79
2022/08/01 08:20:29;;;;;;;9.20;2.42;;;19.00;99.90;;;;;;4863539;29;20080;-79
2022/08/01 08:22:55;;;;;;;11.18;2.80;;;19.10;99.90;;;;;;4862909;29;20492;-79
2022/08/01 08:25:24;;;;;;;13.18;2.05;;;19.20;99.90;;;;;;4877051;29;20044;-80
2022/08/01 08:27:50;;;;;;;11.07;1.83;;;19.30;99.90;;;;;;4883059;29;20055;-80
2022/08/01 08:30:15;;;;;;;8.95;1.90;;;19.40;99.90;;;;;;4880327;29;20045;-80
2022/08/01 08:32:41;;;;;;;12.98;2.17;;;19.50;99.90;;;;;;4871216;29;20123;-79
2022/08/01 08:35:08;;;;;;;5.22;1.58;;;19.50;99.90;;;;;;4881489;29;20104;-81
2022/08/01 08:37:35;;;;;;;8.65;1.02;;;19.50;99.90;;;;;;4876321;29;20057;-81
2022/08/01 08:40:01;;;;;;;9.30;1.85;;;19.70;99.90;;;;;;4882244;29;20510;-80
2022/08/01 08:42:27;;;;;;;5.85;2.03;;;19.70;99.90;;;;;;4880041;29;20036;-82
2022/08/01 08:44:54;;;;;;;10.20;1.63;;;19.80;99.90;;;;;;4850313;29;20051;-81
2022/08/01 08:47:22;;;;;;;4.40;1.30;;;19.90;99.90;;;;;;4863498;29;20136;-82
2022/08/01 08:49:50;;;;;;;267.65;191.18;;;20.20;99.90;;;;;;4865683;29;20033;-82
2022/08/01 08:52:19;;;;;;;90.22;58.30;;;20.60;99.90;;;;;;4881073;29;20072;-82
2022/08/01 08:54:46;;;;;;;44.35;23.75;;;20.90;99.90;;;;;;4873744;29;20040;-82
2022/08/01 08:57:14;;;;;;;16.92;8.25;;;21.20;99.90;;;;;;4882032;29;20048;-82
2022/08/01 08:59:42;;;;;;;68.40;49.00;;;21.30;99.90;;;;;;4881289;29;20048;-82
2022/08/01 09:02:09;;;;;;;21.77;12.95;;;21.70;99.90;;;;;;4881934;29;20119;-82
2022/08/01 09:04:36;;;;;;;14.15;5.82;;;22.00;99.90;;;;;;4873627;29;20053;-82
2022/08/01 09:07:05;;;;;;;5.88;2.03;;;22.20;99.90;;;;;;4867606;29;20048;-82
2022/08/01 09:09:31;;;;;;;4.45;0.60;;;22.40;99.90;;;;;;4876848;29;20128;-85
2022/08/01 09:11:56;;;;;;;5.10;0.77;;;22.30;99.90;;;;;;4881175;29;20073;-82
2022/08/01 09:14:23;;;;;;;4.90;1.15;;;22.30;99.90;;;;;;4864173;29;20144;-83
2022/08/01 09:17:00;;;;;;;4.50;0.93;;;22.30;99.90;;;;;;4879596;29;20496;-83
2022/08/01 09:19:33;;;;;;;6.20;1.00;;;22.50;99.90;;;;;;4880682;29;20045;-83
2022/08/01 09:22:01;;;;;;;7.68;1.15;;;22.40;99.90;;;;;;4874702;29;20040;-83
2022/08/01 09:24:30;;;;;;;10.65;1.50;;;22.20;99.90;;;;;;4877199;29;20056;-83
2022/08/01 09:26:56;;;;;;;5.68;0.82;;;22.10;99.90;;;;;;4880556;29;20048;-82
2022/08/01 09:29:30;;;;;;;5.70;1.02;;;22.20;99.90;;;;;;4867128;29;20091;-83
2022/08/01 09:31:56;;;;;;;8.52;0.40;;;22.20;99.90;;;;;;4865728;29;20036;-83
2022/08/01 09:34:32;;;;;;;7.82;0.98;;;22.20;99.90;;;;;;4880813;29;20384;-82
2022/08/01 09:37:00;;;;;;;7.20;0.60;;;22.50;99.90;;;;;;4877756;29;20051;-82
2022/08/01 09:39:36;;;;;;;5.95;1.02;;;22.80;99.90;;;;;;4879168;29;20079;-82
2022/08/01 09:42:19;;;;;;;4.30;0.85;;;23.10;99.90;;;;;;4880370;29;20460;-82
2022/08/01 09:44:45;;;;;;;2.92;0.68;;;23.10;99.90;;;;;;4877192;29;20055;-82
2022/08/01 09:47:12;;;;;;;4.43;0.80;;;23.30;99.90;;;;;;4880156;29;20499;-82
2022/08/01 09:49:40;;;;;;;3.65;1.63;;;23.70;99.90;;;;;;4869125;29;20049;-83
2022/08/01 09:52:17;;;;;;;5.95;0.98;;;23.70;99.90;;;;;;4853410;29;20136;-82
2022/08/01 09:54:51;;;;;;;5.93;1.52;;;23.50;99.90;;;;;;4853291;29;20108;-82
2022/08/01 09:57:19;;;;;;;3.87;0.60;;;23.20;99.90;;;;;;4875259;29;20348;-82
2022/08/01 09:59:48;;;;;;;4.05;1.15;;;23.30;99.90;;;;;;4871824;29;20045;-83
2022/08/01 10:02:26;;;;;;;23.50;16.83;;;23.60;99.90;;;;;;4879651;29;20041;-83
2022/08/01 10:04:52;;;;;;;9.85;1.23;;;23.80;99.90;;;;;;4864267;29;20059;-82
2022/08/01 10:07:18;;;;;;;2.75;0.63;;;23.80;99.90;;;;;;4879994;29;20490;-82
2022/08/01 10:09:45;;;;;;;3.35;0.70;;;23.60;99.90;;;;;;4879901;29;20049;-83
2022/08/01 10:12:13;;;;;;;6.15;0.57;;;23.30;99.90;;;;;;4878955;29;20048;-82
2022/08/01 10:14:39;;;;;;;6.30;0.80;;;22.90;99.90;;;;;;4868451;29;20407;-82
2022/08/01 10:17:09;;;;;;;6.07;1.27;;;22.50;99.90;;;;;;4872409;29;20047;-82
2022/08/01 10:19:37;;;;;;;3.72;0.80;;;22.50;99.90;;;;;;4871616;29;20044;-82
2022/08/01 10:22:05;;;;;;;7.40;0.80;;;22.70;99.90;;;;;;4863366;29;20109;-82
2022/08/01 10:24:30;;;;;;;4.07;0.80;;;23.00;99.90;;;;;;4875941;29;20099;-81
2022/08/01 10:27:04;;;;;;;2.88;0.70;;;23.20;99.90;;;;;;4869343;29;20045;-81
2022/08/01 10:29:35;;;;;;;5.70;0.63;;;23.30;99.90;;;;;;4857858;29;20068;-81
2022/08/01 10:32:04;;;;;;;5.75;0.80;;;23.10;99.90;;;;;;4875240;29;20040;-82
2022/08/01 10:34:30;;;;;;;6.35;0.57;;;23.00;99.90;;;;;;4875497;29;20048;-81
2022/08/01 10:36:55;;;;;;;4.88;0.70;;;22.90;99.90;;;;;;4864370;29;20586;-81
2022/08/01 10:39:22;;;;;;;6.35;0.50;;;23.10;99.90;;;;;;4875011;29;20491;-82
2022/08/01 10:41:48;;;;;;;4.63;0.40;;;23.10;99.90;;;;;;4879423;29;20056;-82
2022/08/01 10:44:14;;;;;;;4.80;0.82;;;23.20;99.90;;;;;;4879353;29;20528;-81
2022/08/01 10:46:48;;;;;;;2.85;0.82;;;23.20;99.90;;;;;;4873511;29;20131;-81
2022/08/01 10:49:17;;;;;;;3.35;0.55;;;22.90;99.90;;;;;;4874064;29;20036;-81
2022/08/01 10:51:44;;;;;;;5.80;0.65;;;22.60;99.90;;;;;;4872999;29;20049;-81
2022/08/01 10:54:12;;;;;;;4.38;0.65;;;22.70;99.90;;;;;;4860307;29;20089;-81
2022/08/01 10:56:50;;;;;;;4.82;0.45;;;22.90;99.90;;;;;;4859999;29;20061;-81
2022/08/01 10:59:27;;;;;;;3.47;0.45;;;23.50;99.90;;;;;;4875368;29;20068;-81
2022/08/01 11:02:01;;;;;;;5.85;0.98;;;24.00;99.90;;;;;;4878495;29;20232;-82
2022/08/01 11:04:53;;;;;;;5.50;1.10;;;24.00;99.90;;;;;;4875117;29;20384;-81
2022/08/01 11:07:24;;;;;;;6.53;1.15;;;23.40;99.90;;;;;;4861846;29;20093;-81
2022/08/01 11:10:04;;;;;;;5.90;1.35;;;23.40;99.90;;;;;;4862296;29;20053;-81
2022/08/01 11:12:40;;;;;;;2.15;0.35;;;24.00;99.90;;;;;;4862615;29;20519;-82
2022/08/01 11:15:07;;;;;;;3.75;0.60;;;24.30;99.40;;;;;;4861992;29;20045;-81
2022/08/01 11:17:35;;;;;;;4.57;0.85;;;24.50;99.90;;;;;;4862907;29;20065;-82
2022/08/01 11:20:24;;;;;;;6.70;1.05;;;24.80;99.90;;;;;;4863412;29;20033;-82
2022/08/01 11:23:04;;;;;;;4.15;0.50;;;24.50;97.70;;;;;;4865277;29;20076;-82
2022/08/01 11:25:36;;;;;;;4.25;1.02;;;24.30;99.30;;;;;;4866857;29;20049;-82
2022/08/01 11:28:31;;;;;;;5.43;0.40;;;24.10;99.90;;;;;;4872426;29;20036;-81
2022/08/01 11:31:08;;;;;;;5.93;0.45;;;23.70;96.20;;;;;;4852290;29;20456;-81
2022/08/01 11:33:41;;;;;;;3.72;0.52;;;23.50;99.80;;;;;;4869795;29;20068;-81
2022/08/01 11:36:12;;;;;;;4.47;1.33;;;23.80;99.90;;;;;;4872369;29;20104;-82
2022/08/01 11:38:40;;;;;;;3.50;0.60;;;24.10;99.70;;;;;;4865275;29;20462;-81
2022/08/01 11:41:13;;;;;;;1.77;0.30;;;24.10;99.90;;;;;;4864574;29;20051;-80
2022/08/01 11:44:02;;;;;;;4.60;0.40;;;23.80;99.90;;;;;;4883734;29;20100;-82
2022/08/01 11:46:51;;;;;;;4.00;0.60;;;23.80;99.80;;;;;;4883993;29;20052;-80
2022/08/01 11:49:36;;;;;;;6.78;0.60;;;24.20;99.90;;;;;;4877455;29;20037;-80
2022/08/01 11:52:06;;;;;;;6.60;1.02;;;24.80;97.90;;;;;;4867880;29;20076;-81
2022/08/01 11:54:35;;;;;;;3.70;0.30;;;25.10;99.90;;;;;;4864859;29;20041;-82
2022/08/01 11:57:04;;;;;;;3.33;0.65;;;25.20;98.00;;;;;;4865104;29;20129;-82
2022/08/01 11:59:37;;;;;;;3.92;0.30;;;25.00;97.50;;;;;;4864027;29;20047;-82
2022/08/01 12:02:03;;;;;;;4.63;0.52;;;25.00;96.30;;;;;;4883455;29;20048;-81
2022/08/01 12:04:59;;;;;;;3.47;0.75;;;25.00;97.20;;;;;;4883883;29;20048;-81
2022/08/01 12:07:27;;;;;;;5.75;0.40;;;25.00;90.30;;;;;;4859843;29;20092;-81
2022/08/01 12:10:00;;;;;;;4.18;0.50;;;24.80;98.30;;;;;;4871650;29;20108;-80
2022/08/01 12:12:26;;;;;;;3.33;0.52;;;24.50;96.80;;;;;;4872080;29;20442;-80
2022/08/01 12:15:04;;;;;;;3.85;0.50;;;24.20;98.00;;;;;;4879486;29;20083;-81
2022/08/01 12:17:36;;;;;;;7.68;0.95;;;24.20;97.20;;;;;;4882949;29;20051;-82
2022/08/01 12:20:04;;;;;;;7.13;2.08;;;24.00;97.50;;;;;;4860650;29;20380;-81
2022/08/01 12:22:30;;;;;;;3.90;0.43;;;23.80;99.10;;;;;;4881984;29;20080;-81
2022/08/01 12:25:04;;;;;;;4.45;0.77;;;23.70;98.10;;;;;;4877088;29;20033;-82
2022/08/01 12:27:30;;;;;;;1.90;0.20;;;23.70;98.20;;;;;;4862927;29;20049;-82
2022/08/01 12:29:59;;;;;;;4.38;0.45;;;24.00;99.80;;;;;;4863171;29;20045;-82
2022/08/01 12:32:35;;;;;;;3.88;0.30;;;24.30;95.40;;;;;;4849027;29;20045;-82
2022/08/01 12:35:22;;;;;;;3.50;0.28;;;24.50;95.60;;;;;;4829335;29;20565;-82
2022/08/01 12:37:57;;;;;;;5.15;0.45;;;24.50;90.00;;;;;;4851317;29;20062;-82
2022/08/01 12:40:32;;;;;;;4.18;0.70;;;24.30;92.80;;;;;;4870520;29;20084;-82
2022/08/01 12:43:06;;;;;;;2.45;0.52;;;24.10;96.50;;;;;;4853108;29;20079;-82
2022/08/01 12:45:39;;;;;;;6.60;0.47;;;24.10;96.80;;;;;;4871552;29;20048;-82
2022/08/01 12:48:13;;;;;;;5.97;0.77;;;23.90;95.40;;;;;;4875544;29;20084;-82
2022/08/01 12:50:44;;;;;;;8.90;1.13;;;24.00;94.20;;;;;;4872015;29;20056;-82